Silifke, Turkey
Current Conditions -  °F | °C
As of 8:50 AM on Saturday 25 Oct 2014 (Local Time) from LTAF Reporting Station
Few Clouds Few Clouds  
Wind Chill: 70°   Ceiling: Unl
Heat Index: 70°   Visibility: 6mi
Dew Point: 59°   Wind: 3mph
Humidity: 68%   Direction: 30°NNE
Pressure: 30.03"   Gusts: NA
Location:  36.37°N, 33.93°E
Report Text: LTAF 250550Z 03003KT 350V070 9999 FEW040 21/15 Q1017 NOSIG
Loading
Personal Weather Stations






























Interactive Weather Map
Tropical Storm Tracking
New forecast layout! Learn more

10-Day Weather Forecast

Advertisements
Track Severe Weather on mobile